Yellow Mule RAWS (NWS)

Elevation
9200ft
Aggregated by Synoptic Data
Date/Time Wind Direction Wind Speed knots Wind Gust knots RH % Accumulated Precip Inches Air Temp Fahrenheit
2024-03-04 20:04 SSW 15 27 84 0.28 5
2024-03-04 19:04 SSW 13 19 83 0.28 6
2024-03-04 18:04 SSW 13 21 84 0.28 6
2024-03-04 17:04 SSW 14 20 83 0.28 6
2024-03-04 16:04 SSW 15 29 83 0.28 7
2024-03-04 15:04 SSW 18 27 81 0.28 8
2024-03-04 14:04 SSW 16 21 76 0.28 8
2024-03-04 13:04 SSW 12 19 68 0.28 10
2024-03-04 12:04 S 13 23 62 0.28 12
2024-03-04 11:04 SSE 6 11 71 0.28 11
2024-03-04 10:04 SSE 8 12 74 0.28 8
2024-03-04 09:04 SE 6 10 78 0.28 4
2024-03-04 08:04 SSE 7 11 78 0.28 2
2024-03-04 07:04 S 9 10 82 0.28 -1
2024-03-04 06:04 S 5 17 79 0.28 1
2024-03-04 05:04 SSW 13 20 79 0.28 2
2024-03-04 04:04 SSW 15 18 80 0.28 3
2024-03-04 03:04 SSW 12 19 83 0.28 3
2024-03-04 02:04 S 6 9 83 0.28 1
2024-03-04 01:04 S 3 5 81 0.28 0
2024-03-04 00:04 SSE 3 5 80 0.28 -1
2024-03-03 23:04 ESE 3 6 80 0.28 0
2024-03-03 22:04 SE 3 5 77 0.28 0
2024-03-03 21:04 SSE 3 6 75 0.28 1
2024-03-03 20:04 S 5 10 71 0.28 2
2024-03-03 19:04 SSW 8 16 73 0.28 4
2024-03-03 18:04 SSW 11 17 72 0.28 5
2024-03-03 17:04 SSW 13 18 71 0.28 7
2024-03-03 16:04 SSW 12 21 71 0.28 9
2024-03-03 15:04 SSW 14 20 73 0.28 9
2024-03-03 14:04 SSW 14 19 74 0.28 10
2024-03-03 13:04 SSW 9 14 74 0.28 12
2024-03-03 12:04 SSW 7 14 77 0.28 13
2024-03-03 11:04 SSW 5 12 77 0.28 13
2024-03-03 10:04 S 7 13 77 0.28 10
2024-03-03 09:04 S 7 15 79 0.28 7
2024-03-03 08:04 SSW 11 17 80 0.28 3
2024-03-03 07:04 SSW 13 19 82 0.28 1
2024-03-03 06:04 SSW 10 15 83 0.28 1
2024-03-03 05:04 SSW 8 16 83 0.28 1
2024-03-03 04:04 SSW 10 19 84 0.28 3
2024-03-03 03:04 SSW 14 24 85 0.28 5
2024-03-03 02:04 SSW 14 21 86 0.28 6
2024-03-03 01:04 S 10 24 86 0.28 6
2024-03-03 00:04 SSW 18 35 86 0.28 6
2024-03-02 23:04 S 23 38 87 0.28 7
2024-03-02 22:04 SSE 21 33 86 0.28 6
2024-03-02 21:04 S 16 36 88 0.28 9
2024-03-02 20:04 SSE 19 31 88 0.28 9